Tropical Cyclones
[Index]
Main Index Home Page Stock Weather Photos Extreme Storms Discussion Storm News and Storm Chasing Reports Tropical Cyclones / Hurricanes / Typhoons Weather Data and Links Wild Fires / Bushfires Weather Observation Techniques Weather Picture Catalogue Tornado Pictures and Reports Stock Video Footage and DVDs for sale
Season 2004-2005 Tropical Cyclone 200510 Track Map
Season 2004-2005 Summaries: [BoM-AU] [JTWC-AU] [JTWC-SIO] [JTWC-SPAC] [JTWC-SH]
<<- Previous TC | JTWC 2004-2005 Season | Next TC ->>

click for intensity scale information  Lat/long Grid: Show Hide

 Date Labels: Show Hide

Joint Typhoon Warning Centre Cyclone Data

Name: 200510

13 Jan 2005 06:00 UTC to 18 Jan 2005 12:00 UTC

    date/time    lat    long     hPa   cat  kts
2005-01-13 06   13.8   123.7    1004         20          
2005-01-13 12   13.9   123.4    1004         20          
2005-01-13 18   14.0   123.0    1004         20          
2005-01-14 00   14.1   122.5    1002         25          
2005-01-14 06   14.2   121.9    1002         25          
2005-01-14 12   14.3   121.3    1002         25          
2005-01-14 18   14.4   120.4    1002         25          
2005-01-15 00   14.4   119.4    1002         25          
2005-01-15 06   14.5   118.4    1000         30          
2005-01-15 12   14.6   117.2     997         35          
2005-01-15 18   14.9   116.0     997         35          
2005-01-16 00   15.2   114.8     997         35          
2005-01-16 06   15.3   113.4    1000         30          
2005-01-16 12   15.6   112.1    1000         30          
2005-01-16 18   15.7   110.8    1000         30          
2005-01-17 00   15.6   109.6    1002         25          
2005-01-17 06   15.2   107.5    1004         20          
2005-01-17 12   14.7   105.4    1004         20          
2005-01-17 18   14.4   103.3    1004         20          
2005-01-18 00   14.3   102.1    1004         20          
2005-01-18 06   14.4   101.1    1004         20          
2005-01-18 12   14.4   100.1    1006         15          
Winds are 1-min average.

Tropical cyclone tracks developed by Michael Bath using data from the Joint Typhoon Warning Centre Best Tracks and Google Maps.


[Australian Severe Weather index] [Copyright Notice] [Email Contacts] [Search This Site] [Privacy Policy]
Document: tropical_cyclone_200510.htm Updated: 28 June 2017